Time;durP1;ratioP1;P1;durP2;ratioP2;P2;SDS_P1;SDS_P2;PMS_P1;PMS_P2;Temp;Humidity;BMP_temperature;BMP_pressure;BME280_temperature;BME280_humidity;BME280_pressure;Samples;Min_cycle;Max_cycle;Signal;HPM_P1;HPM_P2
2022/12/16 00:01:19;;;;;;;;;;;-4.80;99.90;;;;;;5094855;28;20392;-63
2022/12/16 00:03:48;;;;;;;;;;;-4.90;99.90;;;;;;5099990;28;20634;-63
2022/12/16 00:06:14;;;;;;;;;;;-4.90;99.90;;;;;;5102181;28;19935;-64
2022/12/16 00:08:39;;;;;;;;;;;-4.90;99.90;;;;;;5100944;28;19912;-64
2022/12/16 00:11:05;;;;;;;;;;;-4.90;99.90;;;;;;5098366;28;19920;-63
2022/12/16 00:13:32;;;;;;;;;;;-4.90;99.90;;;;;;5100646;28;19917;-63
2022/12/16 00:15:58;;;;;;;;;;;-4.90;99.90;;;;;;5100563;28;19920;-64
2022/12/16 00:18:24;;;;;;;;;;;-5.00;99.90;;;;;;5103869;28;20412;-64
2022/12/16 00:20:53;;;;;;;;;;;-5.00;99.90;;;;;;5102449;28;19924;-64
2022/12/16 00:23:18;;;;;;;;;;;-4.90;99.90;;;;;;5103768;28;19915;-64
2022/12/16 00:25:45;;;;;;;;;;;-5.00;99.90;;;;;;5102082;28;20224;-64
2022/12/16 00:28:11;;;;;;;;;;;-5.00;99.90;;;;;;5103818;28;20069;-63
2022/12/16 00:30:36;;;;;;;;;;;-4.90;99.90;;;;;;5102044;28;20358;-63
2022/12/16 00:33:02;;;;;;;;;;;-5.00;99.90;;;;;;5102084;28;20162;-63
2022/12/16 00:35:29;;;;;;;;;;;-5.00;99.90;;;;;;5102088;28;20018;-64
2022/12/16 00:37:55;;;;;;;;;;;-5.00;99.90;;;;;;5104960;28;20286;-64
2022/12/16 00:40:20;;;;;;;;;;;-5.00;99.90;;;;;;5100809;28;19931;-63
2022/12/16 00:42:46;;;;;;;;;;;-5.00;99.90;;;;;;5102766;28;19943;-63
2022/12/16 00:45:11;;;;;;;;;;;-5.00;99.90;;;;;;5099774;28;20093;-63
2022/12/16 00:47:37;;;;;;;;;;;-5.00;99.90;;;;;;5067938;28;19958;-63
2022/12/16 00:50:03;;;;;;;;;;;-4.90;99.90;;;;;;5099959;28;19960;-63
2022/12/16 00:52:28;;;;;;;;;;;-4.90;99.90;;;;;;5100071;28;19917;-63
2022/12/16 00:54:53;;;;;;;;;;;-5.00;99.90;;;;;;5099534;28;20358;-63
2022/12/16 00:57:19;;;;;;;;;;;-5.00;99.90;;;;;;5098412;28;19912;-63
2022/12/16 00:59:44;;;;;;;;;;;-4.90;99.90;;;;;;5104912;28;19916;-62
2022/12/16 01:02:10;;;;;;;;;;;-4.90;99.90;;;;;;5100278;28;19916;-63
2022/12/16 01:04:35;;;;;;;;;;;-5.00;99.90;;;;;;5105763;28;19916;-63
2022/12/16 01:07:01;;;;;;;;;;;-5.00;99.90;;;;;;5105013;28;20295;-63
2022/12/16 01:09:26;;;;;;;;;;;-5.00;99.90;;;;;;5103945;28;19916;-63
2022/12/16 01:11:52;;;;;;;;;;;-5.00;99.90;;;;;;5102155;28;19919;-63
2022/12/16 01:14:18;;;;;;;;;;;-5.00;99.90;;;;;;5104721;28;20366;-63
2022/12/16 01:16:43;;;;;;;;;;;-5.00;99.90;;;;;;5104690;28;19981;-63
2022/12/16 01:19:09;;;;;;;;;;;-4.90;99.90;;;;;;5104368;28;19912;-63
2022/12/16 01:21:35;;;;;;;;;;;-5.00;99.90;;;;;;5104768;28;20397;-63
2022/12/16 01:24:01;;;;;;;;;;;-5.00;99.90;;;;;;5103027;28;19916;-63
2022/12/16 01:26:26;;;;;;;;;;;-4.90;99.90;;;;;;5094785;28;19963;-63
2022/12/16 01:28:52;;;;;;;;;;;-4.90;99.90;;;;;;5100334;28;20455;-63
2022/12/16 01:31:19;;;;;;;;;;;-4.80;99.90;;;;;;5099682;28;19931;-63
2022/12/16 01:33:45;;;;;;;;;;;-4.80;99.90;;;;;;5105041;28;19916;-63
2022/12/16 01:36:10;;;;;;;;;;;-4.80;99.90;;;;;;5105573;28;20385;-63
2022/12/16 01:38:36;;;;;;;;;;;-4.80;99.90;;;;;;5102747;28;20351;-63
2022/12/16 01:41:01;;;;;;;;;;;-4.80;99.90;;;;;;5100601;28;19916;-63
2022/12/16 01:43:31;;;;;;;;;;;-4.70;99.90;;;;;;5105744;28;20325;-63
2022/12/16 01:46:12;;;;;;;;;;;-4.70;99.90;;;;;;5102851;28;19932;-63
2022/12/16 01:48:47;;;;;;;;;;;-4.60;99.90;;;;;;5101682;28;19916;-63
2022/12/16 01:51:25;;;;;;;;;;;-4.60;99.90;;;;;;5102555;28;20596;-63
2022/12/16 01:53:52;;;;;;;;;;;-4.60;99.90;;;;;;5100754;28;19924;-63
2022/12/16 01:56:19;;;;;;;;;;;-4.60;99.90;;;;;;5101348;28;20401;-62
2022/12/16 01:58:45;;;;;;;;;;;-4.50;99.90;;;;;;5104922;28;19954;-62
2022/12/16 02:01:12;;;;;;;;;;;-4.50;99.90;;;;;;5099887;28;19985;-63
2022/12/16 02:03:38;;;;;;;;;;;-4.50;99.90;;;;;;5099074;28;19916;-63
2022/12/16 02:06:04;;;;;;;;;;;-4.40;99.90;;;;;;5101749;28;20426;-62
2022/12/16 02:08:30;;;;;;;;;;;-4.40;99.90;;;;;;5099154;28;20390;-62
2022/12/16 02:11:14;;;;;;;;;;;-4.30;99.90;;;;;;5102111;28;19916;-63
2022/12/16 02:13:48;;;;;;;;;;;-4.30;99.90;;;;;;5082193;28;19916;-63
2022/12/16 02:16:24;;;;;;;;;;;-4.30;99.90;;;;;;5094458;28;20398;-63
2022/12/16 02:19:09;;;;;;;;;;;-4.30;99.90;;;;;;5107697;27;19916;-63
2022/12/16 02:21:41;;;;;;;;;;;-4.10;99.90;;;;;;5101895;27;19923;-62
2022/12/16 02:24:24;;;;;;;;;;;-4.20;99.90;;;;;;5106119;27;20472;-63
2022/12/16 02:27:06;;;;;;;;;;;-4.10;99.90;;;;;;5101489;27;19955;-62
2022/12/16 02:29:44;;;;;;;;;;;-4.00;99.90;;;;;;5101218;28;19960;-63
2022/12/16 02:32:19;;;;;;;;;;;-3.80;99.90;;;;;;5103639;28;19969;-63
2022/12/16 02:34:57;;;;;;;;;;;-3.70;99.90;;;;;;5104879;28;19912;-62
2022/12/16 02:37:35;;;;;;;;;;;-3.60;99.90;;;;;;5103231;28;19924;-63
2022/12/16 02:40:02;;;;;;;;;;;-3.60;99.90;;;;;;5102066;28;20446;-62
2022/12/16 02:42:41;;;;;;;;;;;-3.70;99.90;;;;;;5084000;28;19948;-62
2022/12/16 02:45:15;;;;;;;;;;;-3.70;99.90;;;;;;5097078;28;19912;-62
2022/12/16 02:47:40;;;;;;;;;;;-3.70;99.90;;;;;;5098025;28;20015;-63
2022/12/16 02:50:29;;;;;;;;;;;-3.80;99.90;;;;;;5095005;28;20533;-62
2022/12/16 02:52:55;;;;;;;;;;;-3.70;99.90;;;;;;5093155;28;20267;-62
2022/12/16 02:55:27;;;;;;;;;;;-3.70;99.90;;;;;;5098234;28;19963;-63
2022/12/16 02:58:09;;;;;;;;;;;-3.60;99.90;;;;;;5102690;28;19912;-63
2022/12/16 03:00:47;;;;;;;;;;;-3.60;99.90;;;;;;5096766;28;19951;-63
2022/12/16 03:03:18;;;;;;;;;;;-3.60;99.90;;;;;;5097613;28;20425;-63
2022/12/16 03:05:47;;;;;;;;;;;-3.50;99.90;;;;;;5102824;28;20382;-62
2022/12/16 03:08:22;;;;;;;;;;;-3.50;99.90;;;;;;5101633;28;19970;-63
2022/12/16 03:10:55;;;;;;;;;;;-3.50;99.90;;;;;;5094304;28;20382;-63
2022/12/16 03:13:21;;;;;;;;;;;-3.50;99.90;;;;;;5098742;28;19916;-63
2022/12/16 03:15:48;;;;;;;;;;;-3.50;99.90;;;;;;5100965;28;19961;-62
2022/12/16 03:18:14;;;;;;;;;;;-3.60;99.90;;;;;;5099935;28;20645;-63
2022/12/16 03:20:51;;;;;;;;;;;-4.00;99.90;;;;;;5102688;28;19918;-63
2022/12/16 03:23:19;;;;;;;;;;;-3.90;99.90;;;;;;5093144;28;19965;-62
2022/12/16 03:25:46;;;;;;;;;;;-3.90;99.90;;;;;;5102553;28;19973;-63
2022/12/16 03:28:35;;;;;;;;;;;-3.90;99.90;;;;;;5100235;28;20403;-63
2022/12/16 03:31:07;;;;;;;;;;;-3.90;99.90;;;;;;5098004;28;19922;-62
2022/12/16 03:33:35;;;;;;;;;;;-3.90;99.90;;;;;;5098355;28;20010;-62
2022/12/16 03:36:03;;;;;;;;;;;-3.90;99.90;;;;;;5081043;28;19912;-63
2022/12/16 03:38:29;;;;;;;;;;;-3.90;99.90;;;;;;5097986;28;20364;-63
2022/12/16 03:40:55;;;;;;;;;;;-3.80;99.90;;;;;;5096983;28;19968;-63
2022/12/16 03:43:21;;;;;;;;;;;-3.80;99.90;;;;;;5098397;28;19911;-63
2022/12/16 03:45:49;;;;;;;;;;;-3.80;99.90;;;;;;5104031;28;20026;-63
2022/12/16 03:48:17;;;;;;;;;;;-3.70;99.90;;;;;;5102265;28;19919;-63
2022/12/16 03:50:43;;;;;;;;;;;-3.70;99.90;;;;;;5102038;28;20282;-63
2022/12/16 03:53:08;;;;;;;;;;;-3.60;99.90;;;;;;5098728;28;20134;-63
2022/12/16 03:55:34;;;;;;;;;;;-3.60;99.90;;;;;;5099989;28;19921;-63
2022/12/16 03:57:59;;;;;;;;;;;-3.50;99.90;;;;;;5102975;28;19951;-63
2022/12/16 04:00:25;;;;;;;;;;;-3.50;99.90;;;;;;5104441;28;19947;-63
2022/12/16 04:02:50;;;;;;;;;;;-3.40;99.90;;;;;;5105243;28;20407;-63
2022/12/16 04:05:16;;;;;;;;;;;-3.60;99.90;;;;;;5101403;28;19956;-63
2022/12/16 04:07:41;;;;;;;;;;;-3.80;99.90;;;;;;5101551;28;19938;-63
2022/12/16 04:10:07;;;;;;;;;;;-3.70;99.90;;;;;;5095200;28;20469;-63
2022/12/16 04:27:23;;;;;;;;;;;-3.40;99.90;;;;;;5083345;28;19966;-63
2022/12/16 04:29:18;;;;;;;;;;;-3.40;99.90;;;;;;5078689;28;20627;-63
2022/12/16 04:31:44;;;;;;;;;;;-3.70;99.90;;;;;;5083989;28;19928;-63
2022/12/16 04:34:24;;;;;;;;;;;-3.50;99.90;;;;;;5080237;28;19927;-63
